Time,TemperatureF,DewpointF,PressureIn,WindDirection,WindDirectionDegrees,WindSpeedMPH,WindSpeedGustMPH,Humidity,HourlyPrecipIn,Conditions,Clouds,dailyrainin,SoftwareType,DateUTC
2013-05-11 00:05:00,54.0,38.2,29.93,NNW,338,8.0,23.0,55,0.00,,,-99.99,Weather View 32 v60,2013-05-11 05:05:00,
2013-05-11 00:10:00,54.0,38.2,29.93,WNW,292,10.0,23.0,55,0.00,,,-99.99,Weather View 32 v60,2013-05-11 05:10:00,
2013-05-11 00:20:00,54.0,38.2,29.94,NNW,338,6.0,23.0,55,0.00,,,-99.99,Weather View 32 v60,2013-05-11 05:20:00,
2013-05-11 00:25:00,54.0,37.7,29.94,NNW,338,8.0,23.0,54,0.00,,,-99.99,Weather View 32 v60,2013-05-11 05:25:00,
2013-05-11 00:30:00,54.0,36.7,29.94,North,0,10.0,23.0,52,0.00,,,-99.99,Weather View 32 v60,2013-05-11 05:30:00,
2013-05-11 00:35:00,54.0,36.2,29.94,NNE,22,21.0,23.0,51,0.00,,,-99.99,Weather View 32 v60,2013-05-11 05:35:00,
2013-05-11 00:45:00,53.0,36.8,29.95,North,0,10.0,23.0,54,0.00,,,-99.99,Weather View 32 v60,2013-05-11 05:45:00,
2013-05-11 00:50:00,53.0,37.2,29.95,NNE,22,6.0,23.0,55,0.00,,,-99.99,Weather View 32 v60,2013-05-11 05:50:00,
2013-05-11 00:55:00,52.0,37.2,29.96,North,0,8.0,23.0,57,0.00,,,-99.99,Weather View 32 v60,2013-05-11 05:55:00,
2013-05-11 01:00:00,52.0,37.7,29.96,NNE,22,11.0,23.0,58,0.00,,,-99.99,Weather View 32 v60,2013-05-11 06:00:00,
2013-05-11 01:05:00,51.0,37.2,29.97,NE,45,11.0,23.0,59,0.00,,,-99.99,Weather View 32 v60,2013-05-11 06:05:00,
2013-05-11 01:10:00,51.0,37.2,29.97,NNW,338,5.0,23.0,59,0.00,,,-99.99,Weather View 32 v60,2013-05-11 06:10:00,
2013-05-11 01:15:00,50.0,35.8,29.98,NNW,338,10.0,24.0,58,0.00,,,-99.99,Weather View 32 v60,2013-05-11 06:15:00,
2013-05-11 01:20:00,50.0,35.8,29.98,North,0,8.0,24.0,58,0.00,,,-99.99,Weather View 32 v60,2013-05-11 06:20:00,
2013-05-11 01:25:00,50.0,35.8,29.98,NNW,338,8.0,24.0,58,0.00,,,-99.99,Weather View 32 v60,2013-05-11 06:25:00,
2013-05-11 01:30:00,49.0,34.8,29.98,NE,45,6.0,24.0,58,0.00,,,-99.99,Weather View 32 v60,2013-05-11 06:30:00,
2013-05-11 01:35:00,49.0,34.8,29.98,North,0,7.0,24.0,58,0.00,,,-99.99,Weather View 32 v60,2013-05-11 06:35:00,
2013-05-11 01:40:00,49.0,34.8,29.99,NNE,22,5.0,24.0,58,0.00,,,-99.99,Weather View 32 v60,2013-05-11 06:40:00,
2013-05-11 01:45:00,48.0,33.9,29.99,North,0,7.0,24.0,58,0.00,,,-99.99,Weather View 32 v60,2013-05-11 06:45:00,
2013-05-11 01:50:00,48.0,33.9,29.99,NNE,22,6.0,24.0,58,0.00,,,-99.99,Weather View 32 v60,2013-05-11 06:50:00,
2013-05-11 01:55:00,48.0,33.5,29.99,NNW,338,13.0,24.0,57,0.00,,,-99.99,Weather View 32 v60,2013-05-11 06:55:00,
2013-05-11 02:05:00,47.0,30.7,29.99,NE,45,8.0,24.0,53,0.00,,,-99.99,Weather View 32 v60,2013-05-11 07:05:00,
2013-05-11 02:10:00,47.0,30.3,30.00,North,0,5.0,24.0,52,0.00,,,-99.99,Weather View 32 v60,2013-05-11 07:10:00,
2013-05-11 02:20:00,46.0,29.3,30.00,North,0,8.0,22.0,52,0.00,,,-99.99,Weather View 32 v60,2013-05-11 07:20:00,
2013-05-11 02:25:00,45.0,28.4,30.00,NNE,22,8.0,22.0,52,0.00,,,-99.99,Weather View 32 v60,2013-05-11 07:25:00,
2013-05-11 02:30:00,45.0,28.9,30.00,NNE,22,5.0,22.0,53,0.00,,,-99.99,Weather View 32 v60,2013-05-11 07:30:00,
2013-05-11 02:35:00,44.0,27.9,30.01,North,0,5.0,22.0,53,0.00,,,-99.99,Weather View 32 v60,2013-05-11 07:35:00,
2013-05-11 02:45:00,44.0,29.3,30.01,NNE,22,5.0,22.0,56,0.00,,,-99.99,Weather View 32 v60,2013-05-11 07:45:00,
2013-05-11 02:50:00,43.0,29.2,30.01,NNE,22,5.0,22.0,58,0.00,,,-99.99,Weather View 32 v60,2013-05-11 07:50:00,
2013-05-11 02:55:00,43.0,29.6,30.02,NNW,338,8.0,22.0,59,0.00,,,-99.99,Weather View 32 v60,2013-05-11 07:55:00,
2013-05-11 03:00:00,42.0,29.1,30.02,NNE,22,12.0,22.0,60,0.00,,,-99.99,Weather View 32 v60,2013-05-11 08:00:00,
2013-05-11 03:05:00,42.0,28.7,30.02,North,0,7.0,18.0,59,0.00,,,-99.99,Weather View 32 v60,2013-05-11 08:05:00,
2013-05-11 03:10:00,41.0,27.8,30.02,North,0,6.0,18.0,59,0.00,,,-99.99,Weather View 32 v60,2013-05-11 08:10:00,
2013-05-11 03:15:00,41.0,27.8,30.02,NNW,338,11.0,17.0,59,0.00,,,-99.99,Weather View 32 v60,2013-05-11 08:15:00,
2013-05-11 03:20:00,41.0,27.8,30.02,North,0,8.0,17.0,59,0.00,,,-99.99,Weather View 32 v60,2013-05-11 08:20:00,
2013-05-11 03:25:00,40.0,26.4,30.03,NNE,22,6.0,19.0,58,0.00,,,-99.99,Weather View 32 v60,2013-05-11 08:25:00,
2013-05-11 03:30:00,40.0,26.4,30.03,NE,45,6.0,19.0,58,0.00,,,-99.99,Weather View 32 v60,2013-05-11 08:30:00,
2013-05-11 03:35:00,40.0,26.4,30.03,NE,45,6.0,19.0,58,0.00,,,-99.99,Weather View 32 v60,2013-05-11 08:35:00,
2013-05-11 03:40:00,40.0,26.8,30.03,NNE,22,6.0,19.0,59,0.00,,,-99.99,Weather View 32 v60,2013-05-11 08:40:00,
2013-05-11 03:45:00,39.0,25.9,30.04,North,0,6.0,19.0,59,0.00,,,-99.99,Weather View 32 v60,2013-05-11 08:45:00,
2013-05-11 03:50:00,39.0,25.9,30.04,NNE,22,11.0,19.0,59,0.00,,,-99.99,Weather View 32 v60,2013-05-11 08:50:00,
2013-05-11 03:55:00,39.0,26.3,30.04,NNE,22,6.0,19.0,60,0.00,,,-99.99,Weather View 32 v60,2013-05-11 08:55:00,
2013-05-11 04:00:00,39.0,26.3,30.05,NNE,22,7.0,19.0,60,0.00,,,-99.99,Weather View 32 v60,2013-05-11 09:00:00,
2013-05-11 04:05:00,39.0,26.7,30.05,NE,45,10.0,19.0,61,0.00,,,-99.99,Weather View 32 v60,2013-05-11 09:05:00,
2013-05-11 04:15:00,38.0,26.1,30.05,NNE,22,8.0,19.0,62,0.00,,,-99.99,Weather View 32 v60,2013-05-11 09:15:00,
2013-05-11 04:20:00,38.0,26.1,30.06,NNE,22,4.0,19.0,62,0.00,,,-99.99,Weather View 32 v60,2013-05-11 09:20:00,
2013-05-11 04:25:00,38.0,26.1,30.06,NNE,22,5.0,19.0,62,0.00,,,-99.99,Weather View 32 v60,2013-05-11 09:25:00,
2013-05-11 04:30:00,38.0,26.5,30.06,NNE,22,6.0,19.0,63,0.00,,,-99.99,Weather View 32 v60,2013-05-11 09:30:00,
2013-05-11 04:35:00,38.0,26.5,30.06,North,0,8.0,19.0,63,0.00,,,-99.99,Weather View 32 v60,2013-05-11 09:35:00,
2013-05-11 04:45:00,37.0,25.9,30.06,North,0,2.0,19.0,64,0.00,,,-99.99,Weather View 32 v60,2013-05-11 09:45:00,
2013-05-11 04:50:00,37.0,25.9,30.06,North,0,8.0,19.0,64,0.00,,,-99.99,Weather View 32 v60,2013-05-11 09:50:00,
2013-05-11 04:55:00,37.0,26.3,30.06,NNW,338,10.0,18.0,65,0.00,,,-99.99,Weather View 32 v60,2013-05-11 09:55:00,
2013-05-11 05:00:00,37.0,26.3,30.06,North,0,6.0,18.0,65,0.00,,,-99.99,Weather View 32 v60,2013-05-11 10:00:00,
2013-05-11 05:10:00,37.0,26.7,30.07,NNW,338,8.0,18.0,66,0.00,,,-99.99,Weather View 32 v60,2013-05-11 10:10:00,
2013-05-11 05:20:00,36.0,25.7,30.07,NNE,22,5.0,19.0,66,0.00,,,-99.99,Weather View 32 v60,2013-05-11 10:20:00,
2013-05-11 05:25:00,36.0,25.7,30.07,North,0,8.0,19.0,66,0.00,,,-99.99,Weather View 32 v60,2013-05-11 10:25:00,
2013-05-11 05:30:00,36.0,26.1,30.07,North,0,5.0,19.0,67,0.00,,,-99.99,Weather View 32 v60,2013-05-11 10:30:00,
2013-05-11 05:40:00,36.0,26.1,30.08,NNW,338,13.0,19.0,67,0.00,,,-99.99,Weather View 32 v60,2013-05-11 10:40:00,
2013-05-11 05:45:00,36.0,26.1,30.08,North,0,7.0,19.0,67,0.00,,,-99.99,Weather View 32 v60,2013-05-11 10:45:00,
2013-05-11 05:50:00,36.0,26.1,30.09,North,0,5.0,19.0,67,0.00,,,-99.99,Weather View 32 v60,2013-05-11 10:50:00,
2013-05-11 06:00:00,36.0,26.1,30.09,NNE,22,5.0,19.0,67,0.00,,,-99.99,Weather View 32 v60,2013-05-11 11:00:00,
2013-05-11 06:05:00,36.0,26.1,30.09,NNE,22,6.0,19.0,67,0.00,,,-99.99,Weather View 32 v60,2013-05-11 11:05:00,
2013-05-11 06:10:00,36.0,26.5,30.09,NNE,22,8.0,19.0,68,0.00,,,-99.99,Weather View 32 v60,2013-05-11 11:10:00,
2013-05-11 06:15:00,36.0,26.1,30.10,North,0,11.0,19.0,67,0.00,,,-99.99,Weather View 32 v60,2013-05-11 11:15:00,
2013-05-11 06:25:00,36.0,26.1,30.10,NNW,338,8.0,18.0,67,0.00,,,-99.99,Weather View 32 v60,2013-05-11 11:25:00,
2013-05-11 06:30:00,36.0,26.1,30.10,NNE,22,10.0,18.0,67,0.00,,,-99.99,Weather View 32 v60,2013-05-11 11:30:00,
2013-05-11 06:35:00,36.0,26.1,30.10,North,0,11.0,18.0,67,0.00,,,-99.99,Weather View 32 v60,2013-05-11 11:35:00,
2013-05-11 06:45:00,37.0,26.7,30.10,North,0,7.0,17.0,66,0.00,,,-99.99,Weather View 32 v60,2013-05-11 11:45:00,
2013-05-11 06:50:00,37.0,26.3,30.11,North,0,7.0,16.0,65,0.00,,,-99.99,Weather View 32 v60,2013-05-11 11:50:00,
2013-05-11 06:55:00,37.0,26.3,30.11,NNW,338,10.0,18.0,65,0.00,,,-99.99,Weather View 32 v60,2013-05-11 11:55:00,
2013-05-11 07:00:00,37.0,25.9,30.11,North,0,7.0,18.0,64,0.00,,,-99.99,Weather View 32 v60,2013-05-11 12:00:00,
2013-05-11 07:05:00,37.0,25.9,30.11,NNE,22,8.0,18.0,64,0.00,,,-99.99,Weather View 32 v60,2013-05-11 12:05:00,
2013-05-11 07:10:00,37.0,25.9,30.11,NNW,338,5.0,18.0,64,0.00,,,-99.99,Weather View 32 v60,2013-05-11 12:10:00,
2013-05-11 07:15:00,37.0,25.9,30.11,North,0,7.0,18.0,64,0.00,,,-99.99,Weather View 32 v60,2013-05-11 12:15:00,
2013-05-11 07:20:00,38.0,26.9,30.11,North,0,9.0,18.0,64,0.00,,,-99.99,Weather View 32 v60,2013-05-11 12:20:00,
2013-05-11 07:25:00,39.0,27.5,30.11,North,0,13.0,18.0,63,0.00,,,-99.99,Weather View 32 v60,2013-05-11 12:25:00,
2013-05-11 07:30:00,39.0,27.1,30.11,NNE,22,5.0,21.0,62,0.00,,,-99.99,Weather View 32 v60,2013-05-11 12:30:00,
2013-05-11 07:35:00,39.0,27.1,30.11,North,0,7.0,21.0,62,0.00,,,-99.99,Weather View 32 v60,2013-05-11 12:35:00,
2013-05-11 07:45:00,39.0,27.1,30.11,North,0,8.0,23.0,62,0.00,,,-99.99,Weather View 32 v60,2013-05-11 12:45:00,
2013-05-11 07:50:00,39.0,27.1,30.11,NE,45,8.0,23.0,62,0.00,,,-99.99,Weather View 32 v60,2013-05-11 12:50:00,
2013-05-11 07:55:00,39.0,26.7,30.11,NNE,22,10.0,23.0,61,0.00,,,-99.99,Weather View 32 v60,2013-05-11 12:55:00,
2013-05-11 08:00:00,40.0,27.2,30.11,North,0,12.0,23.0,60,0.00,,,-99.99,Weather View 32 v60,2013-05-11 13:00:00,
2013-05-11 08:10:00,40.0,26.4,30.11,North,0,8.0,23.0,58,0.00,,,-99.99,Weather View 32 v60,2013-05-11 13:10:00,
2013-05-11 08:15:00,40.0,26.0,30.11,NNW,338,12.0,23.0,57,0.00,,,-99.99,Weather View 32 v60,2013-05-11 13:15:00,
2013-05-11 08:20:00,40.0,26.4,30.11,NNE,22,7.0,23.0,58,0.00,,,-99.99,Weather View 32 v60,2013-05-11 13:20:00,
2013-05-11 08:30:00,41.0,26.9,30.11,NNE,22,6.0,23.0,57,0.00,,,-99.99,Weather View 32 v60,2013-05-11 13:30:00,
2013-05-11 08:35:00,41.0,26.0,30.11,North,0,21.0,24.0,55,0.00,,,-99.99,Weather View 32 v60,2013-05-11 13:35:00,
2013-05-11 08:40:00,41.0,25.6,30.11,NNE,22,10.0,24.0,54,0.00,,,-99.99,Weather View 32 v60,2013-05-11 13:40:00,
2013-05-11 08:45:00,42.0,27.0,30.11,NNE,22,6.0,24.0,55,0.00,,,-99.99,Weather View 32 v60,2013-05-11 13:45:00,
2013-05-11 08:50:00,43.0,26.6,30.11,NNW,338,14.0,24.0,52,0.00,,,-99.99,Weather View 32 v60,2013-05-11 13:50:00,
2013-05-11 08:55:00,42.0,25.2,30.11,North,0,15.0,24.0,51,0.00,,,-99.99,Weather View 32 v60,2013-05-11 13:55:00,
2013-05-11 09:00:00,42.0,25.6,30.12,NNW,338,9.0,24.0,52,0.00,,,-99.99,Weather View 32 v60,2013-05-11 14:00:00,
2013-05-11 09:05:00,42.0,26.1,30.11,North,0,10.0,24.0,53,0.00,,,-99.99,Weather View 32 v60,2013-05-11 14:05:00,
2013-05-11 09:10:00,42.0,25.2,30.12,NNE,22,13.0,24.0,51,0.00,,,-99.99,Weather View 32 v60,2013-05-11 14:10:00,
2013-05-11 09:15:00,42.0,25.6,30.12,NNE,22,12.0,24.0,52,0.00,,,-99.99,Weather View 32 v60,2013-05-11 14:15:00,
2013-05-11 09:20:00,42.0,25.6,30.11,North,0,7.0,24.0,52,0.00,,,-99.99,Weather View 32 v60,2013-05-11 14:20:00,
2013-05-11 09:25:00,42.0,25.6,30.12,North,0,13.0,24.0,52,0.00,,,-99.99,Weather View 32 v60,2013-05-11 14:25:00,
2013-05-11 09:30:00,42.0,26.1,30.12,North,0,5.0,24.0,53,0.00,,,-99.99,Weather View 32 v60,2013-05-11 14:30:00,
2013-05-11 09:35:00,42.0,26.1,30.12,NNE,22,5.0,24.0,53,0.00,,,-99.99,Weather View 32 v60,2013-05-11 14:35:00,
2013-05-11 09:40:00,42.0,26.5,30.12,North,0,14.0,24.0,54,0.00,,,-99.99,Weather View 32 v60,2013-05-11 14:40:00,
2013-05-11 09:45:00,41.0,26.0,30.12,NNW,338,10.0,26.0,55,0.00,,,-99.99,Weather View 32 v60,2013-05-11 14:45:00,
2013-05-11 09:55:00,42.0,27.0,30.12,NNE,22,11.0,26.0,55,0.00,,,-99.99,Weather View 32 v60,2013-05-11 14:55:00,
2013-05-11 10:00:00,43.0,27.0,30.12,NNE,22,13.0,26.0,53,0.00,,,-99.99,Weather View 32 v60,2013-05-11 15:00:00,
2013-05-11 10:05:00,43.0,26.6,30.12,North,0,7.0,26.0,52,0.00,,,-99.99,Weather View 32 v60,2013-05-11 15:05:00,
2013-05-11 10:13:00,44.0,27.0,30.11,NNW,338,21.0,26.0,51,0.00,,,-99.99,Weather View 32 v60,2013-05-11 15:13:00,
2013-05-11 10:20:00,44.0,26.5,30.12,North,0,10.0,26.0,50,0.00,,,-99.99,Weather View 32 v60,2013-05-11 15:20:00,
2013-05-11 10:25:00,42.0,25.6,30.13,NNW,338,27.0,29.0,52,0.00,,,-99.99,Weather View 32 v60,2013-05-11 15:25:00,
2013-05-11 10:30:00,41.0,27.8,30.13,North,0,10.0,29.0,59,0.00,,,-99.99,Weather View 32 v60,2013-05-11 15:30:00,
2013-05-11 10:35:00,40.0,28.4,30.13,NNE,22,5.0,29.0,63,0.00,,,-99.99,Weather View 32 v60,2013-05-11 15:35:00,
2013-05-11 10:40:00,40.0,29.2,30.12,North,0,8.0,29.0,65,0.00,,,-99.99,Weather View 32 v60,2013-05-11 15:40:00,
2013-05-11 10:45:00,42.0,30.3,30.12,NNE,22,6.0,29.0,63,0.00,,,-99.99,Weather View 32 v60,2013-05-11 15:45:00,
2013-05-11 10:50:00,44.0,30.6,30.11,NNE,22,13.0,29.0,59,0.00,,,-99.99,Weather View 32 v60,2013-05-11 15:50:00,
2013-05-11 10:55:00,45.0,28.4,30.11,NNW,338,18.0,29.0,52,0.00,,,-99.99,Weather View 32 v60,2013-05-11 15:55:00,
2013-05-11 11:00:00,44.0,27.0,30.12,North,0,15.0,29.0,51,0.00,,,-99.99,Weather View 32 v60,2013-05-11 16:00:00,
2013-05-11 11:05:00,41.0,28.6,30.13,North,0,13.0,32.0,61,0.00,,,-99.99,Weather View 32 v60,2013-05-11 16:05:00,
2013-05-11 11:10:00,38.0,28.4,30.14,NNW,338,13.0,32.0,68,0.00,,,-99.99,Weather View 32 v60,2013-05-11 16:10:00,
2013-05-11 11:15:00,38.0,30.8,30.13,NNE,22,9.0,32.0,75,0.00,,,-99.99,Weather View 32 v60,2013-05-11 16:15:00,
2013-05-11 11:20:00,40.0,33.4,30.13,North,0,5.0,32.0,77,0.00,,,-99.99,Weather View 32 v60,2013-05-11 16:20:00,
2013-05-11 11:30:00,44.0,36.9,30.12,North,0,10.0,32.0,76,0.00,,,-99.99,Weather View 32 v60,2013-05-11 16:30:00,
2013-05-11 11:35:00,44.0,35.5,30.12,North,0,11.0,32.0,72,0.00,,,-99.99,Weather View 32 v60,2013-05-11 16:35:00,
2013-05-11 11:40:00,45.0,36.2,30.13,North,0,9.0,32.0,71,0.00,,,-99.99,Weather View 32 v60,2013-05-11 16:40:00,
2013-05-11 11:50:00,40.0,31.3,30.13,North,0,8.0,35.0,71,0.01,,,-99.99,Weather View 32 v60,2013-05-11 16:50:00,
2013-05-11 11:55:00,41.0,33.7,30.12,North,0,8.0,35.0,75,0.01,,,-99.99,Weather View 32 v60,2013-05-11 16:55:00,
2013-05-11 12:00:00,43.0,36.6,30.12,NNE,22,7.0,35.0,78,0.01,,,-99.99,Weather View 32 v60,2013-05-11 17:00:00,
2013-05-11 12:05:00,45.0,37.9,30.12,NNE,22,6.0,35.0,76,0.01,,,-99.99,Weather View 32 v60,2013-05-11 17:05:00,
2013-05-11 12:10:00,44.0,33.4,30.12,North,0,11.0,35.0,66,0.01,,,-99.99,Weather View 32 v60,2013-05-11 17:10:00,
2013-05-11 12:15:00,44.0,32.6,30.12,North,0,13.0,35.0,64,0.01,,,-99.99,Weather View 32 v60,2013-05-11 17:15:00,
2013-05-11 12:25:00,47.0,33.4,30.12,NE,45,21.0,35.0,59,0.01,,,-99.99,Weather View 32 v60,2013-05-11 17:25:00,
2013-05-11 12:30:00,47.0,29.3,30.12,NNE,22,16.0,35.0,50,0.01,,,-99.99,Weather View 32 v60,2013-05-11 17:30:00,
2013-05-11 12:35:00,47.0,29.3,30.13,North,0,11.0,35.0,50,0.01,,,-99.99,Weather View 32 v60,2013-05-11 17:35:00,
2013-05-11 12:40:00,47.0,29.3,30.12,North,0,11.0,35.0,50,0.01,,,-99.99,Weather View 32 v60,2013-05-11 17:40:00,
2013-05-11 12:45:00,46.0,28.4,30.13,NNW,338,9.0,33.0,50,0.01,,,-99.99,Weather View 32 v60,2013-05-11 17:45:00,
2013-05-11 12:55:00,45.0,27.0,30.13,NNE,22,11.0,36.0,49,0.00,,,-99.99,Weather View 32 v60,2013-05-11 17:55:00,
2013-05-11 13:00:00,44.0,27.0,30.13,North,0,12.0,36.0,51,0.00,,,-99.99,Weather View 32 v60,2013-05-11 18:00:00,
2013-05-11 13:05:00,45.0,28.9,30.13,North,0,9.0,36.0,53,0.00,,,-99.99,Weather View 32 v60,2013-05-11 18:05:00,
2013-05-11 13:14:00,45.0,29.3,30.13,North,0,14.0,36.0,54,0.00,,,-99.99,Weather View 32 v60,2013-05-11 18:14:00,
2013-05-11 13:20:00,44.0,27.0,30.14,North,0,16.0,36.0,51,0.00,,,-99.99,Weather View 32 v60,2013-05-11 18:20:00,
2013-05-11 13:25:00,44.0,27.9,30.14,North,0,14.0,36.0,53,0.00,,,-99.99,Weather View 32 v60,2013-05-11 18:25:00,
2013-05-11 13:30:00,44.0,27.9,30.14,North,0,8.0,36.0,53,0.00,,,-99.99,Weather View 32 v60,2013-05-11 18:30:00,
2013-05-11 13:35:00,44.0,27.0,30.15,NNE,22,18.0,36.0,51,0.00,,,-99.99,Weather View 32 v60,2013-05-11 18:35:00,
2013-05-11 13:40:00,44.0,27.0,30.15,NNE,22,12.0,36.0,51,0.00,,,-99.99,Weather View 32 v60,2013-05-11 18:40:00,
2013-05-11 13:50:00,46.0,26.9,30.15,North,0,8.0,36.0,47,0.00,,,-99.99,Weather View 32 v60,2013-05-11 18:50:00,
2013-05-11 13:55:00,45.0,24.4,30.15,North,0,11.0,36.0,44,0.00,,,-99.99,Weather View 32 v60,2013-05-11 18:55:00,
2013-05-11 14:00:00,45.0,24.9,30.15,North,0,16.0,30.0,45,0.00,,,-99.99,Weather View 32 v60,2013-05-11 19:00:00,
2013-05-11 14:05:00,45.0,24.9,30.15,East,90,6.0,30.0,45,0.00,,,-99.99,Weather View 32 v60,2013-05-11 19:05:00,
2013-05-11 14:10:00,45.0,25.4,30.15,NNE,22,11.0,30.0,46,0.00,,,-99.99,Weather View 32 v60,2013-05-11 19:10:00,
2013-05-11 14:15:00,45.0,24.9,30.15,North,0,6.0,30.0,45,0.00,,,-99.99,Weather View 32 v60,2013-05-11 19:15:00,
2013-05-11 14:25:00,45.0,23.8,30.15,NNW,338,16.0,30.0,43,0.00,,,-99.99,Weather View 32 v60,2013-05-11 19:25:00,
2013-05-11 14:30:00,45.0,24.9,30.15,North,0,18.0,30.0,45,0.00,,,-99.99,Weather View 32 v60,2013-05-11 19:30:00,
2013-05-11 14:35:00,46.0,25.8,30.15,NNW,338,6.0,27.0,45,0.00,,,-99.99,Weather View 32 v60,2013-05-11 19:35:00,
2013-05-11 14:40:00,46.0,24.7,30.15,NE,45,10.0,27.0,43,0.00,,,-99.99,Weather View 32 v60,2013-05-11 19:40:00,
2013-05-11 14:45:00,45.0,24.9,30.15,North,0,8.0,27.0,45,0.00,,,-99.99,Weather View 32 v60,2013-05-11 19:45:00,
2013-05-11 14:50:00,47.0,27.8,30.14,NNE,22,8.0,27.0,47,0.00,,,-99.99,Weather View 32 v60,2013-05-11 19:50:00,
2013-05-11 15:00:00,50.0,27.8,30.14,North,0,6.0,27.0,42,0.00,,,-99.99,Weather View 32 v60,2013-05-11 20:00:00,
2013-05-11 15:05:00,50.0,27.2,30.14,North,0,13.0,27.0,41,0.00,,,-99.99,Weather View 32 v60,2013-05-11 20:05:00,
2013-05-11 15:10:00,49.0,25.7,30.14,NNE,22,7.0,27.0,40,0.00,,,-99.99,Weather View 32 v60,2013-05-11 20:10:00,
2013-05-11 15:15:00,49.0,26.3,30.14,NNE,22,14.0,27.0,41,0.00,,,-99.99,Weather View 32 v60,2013-05-11 20:15:00,
2013-05-11 15:20:00,48.0,23.6,30.14,North,0,16.0,27.0,38,0.00,,,-99.99,Weather View 32 v60,2013-05-11 20:20:00,
2013-05-11 15:30:00,50.0,26.0,30.15,NNE,22,21.0,27.0,39,0.00,,,-99.99,Weather View 32 v60,2013-05-11 20:30:00,
2013-05-11 15:35:00,50.0,23.4,30.14,NE,45,9.0,27.0,35,0.00,,,-99.99,Weather View 32 v60,2013-05-11 20:35:00,
2013-05-11 15:40:00,48.0,22.3,30.14,NNW,338,13.0,27.0,36,0.00,,,-99.99,Weather View 32 v60,2013-05-11 20:40:00,
2013-05-11 15:45:00,48.0,22.9,30.14,North,0,10.0,27.0,37,0.00,,,-99.99,Weather View 32 v60,2013-05-11 20:45:00,
2013-05-11 15:50:00,47.0,22.7,30.14,NNE,22,16.0,27.0,38,0.00,,,-99.99,Weather View 32 v60,2013-05-11 20:50:00,
2013-05-11 16:00:00,48.0,23.6,30.14,NNE,22,11.0,28.0,38,0.00,,,-99.99,Weather View 32 v60,2013-05-11 21:00:00,
2013-05-11 16:05:00,49.0,23.2,30.14,NNW,338,11.0,28.0,36,0.00,,,-99.99,Weather View 32 v60,2013-05-11 21:05:00,
2013-05-11 16:10:00,48.0,21.6,30.14,NNE,22,16.0,29.0,35,0.00,,,-99.99,Weather View 32 v60,2013-05-11 21:10:00,
2013-05-11 16:15:00,48.0,22.3,30.15,North,0,16.0,29.0,36,0.00,,,-99.99,Weather View 32 v60,2013-05-11 21:15:00,
2013-05-11 16:20:00,49.0,23.8,30.14,NNE,22,11.0,29.0,37,0.00,,,-99.99,Weather View 32 v60,2013-05-11 21:20:00,
2013-05-11 16:25:00,50.0,22.7,30.14,NE,45,6.0,29.0,34,0.00,,,-99.99,Weather View 32 v60,2013-05-11 21:25:00,
2013-05-11 16:30:00,49.0,22.5,30.14,NNE,22,7.0,29.0,35,0.00,,,-99.99,Weather View 32 v60,2013-05-11 21:30:00,
2013-05-11 16:35:00,48.0,22.3,30.14,North,0,18.0,29.0,36,0.00,,,-99.99,Weather View 32 v60,2013-05-11 21:35:00,
2013-05-11 16:40:00,48.0,22.3,30.14,North,0,14.0,29.0,36,0.00,,,-99.99,Weather View 32 v60,2013-05-11 21:40:00,
2013-05-11 16:50:00,48.0,21.6,30.14,North,0,9.0,29.0,35,0.00,,,-99.99,Weather View 32 v60,2013-05-11 21:50:00,
2013-05-11 16:55:00,48.0,21.6,30.14,North,0,10.0,29.0,35,0.00,,,-99.99,Weather View 32 v60,2013-05-11 21:55:00,
2013-05-11 17:00:00,47.0,22.0,30.14,North,0,10.0,29.0,37,0.00,,,-99.99,Weather View 32 v60,2013-05-11 22:00:00,
2013-05-11 17:05:00,47.0,21.4,30.15,NNE,22,7.0,29.0,36,0.00,,,-99.99,Weather View 32 v60,2013-05-11 22:05:00,
2013-05-11 17:10:00,47.0,22.0,30.15,NNW,338,8.0,29.0,37,0.00,,,-99.99,Weather View 32 v60,2013-05-11 22:10:00,
2013-05-11 17:17:00,46.0,21.1,30.15,NNE,22,12.0,27.0,37,0.00,,,-99.99,Weather View 32 v60,2013-05-11 22:17:00,
2013-05-11 17:25:00,46.0,20.5,30.15,NNE,22,9.0,27.0,36,0.00,,,-99.99,Weather View 32 v60,2013-05-11 22:25:00,
2013-05-11 17:30:00,47.0,21.4,30.16,North,0,6.0,27.0,36,0.00,,,-99.99,Weather View 32 v60,2013-05-11 22:30:00,
2013-05-11 17:35:00,47.0,21.4,30.16,NNW,338,13.0,27.0,36,0.00,,,-99.99,Weather View 32 v60,2013-05-11 22:35:00,
2013-05-11 17:40:00,47.0,21.4,30.16,North,0,5.0,27.0,36,0.00,,,-99.99,Weather View 32 v60,2013-05-11 22:40:00,
2013-05-11 17:45:00,46.0,20.5,30.16,NNW,338,19.0,27.0,36,0.00,,,-99.99,Weather View 32 v60,2013-05-11 22:45:00,
2013-05-11 17:50:00,47.0,22.0,30.16,North,0,13.0,27.0,37,0.00,,,-99.99,Weather View 32 v60,2013-05-11 22:50:00,
2013-05-11 17:55:00,47.0,21.4,30.17,North,0,15.0,27.0,36,0.00,,,-99.99,Weather View 32 v60,2013-05-11 22:55:00,
2013-05-11 18:00:00,47.0,20.7,30.17,NNW,338,10.0,27.0,35,0.00,,,-99.99,Weather View 32 v60,2013-05-11 23:00:00,
2013-05-11 18:10:00,46.0,20.5,30.17,NNW,338,13.0,27.0,36,0.00,,,-99.99,Weather View 32 v60,2013-05-11 23:10:00,
2013-05-11 18:15:00,46.0,20.5,30.17,North,0,9.0,27.0,36,0.00,,,-99.99,Weather View 32 v60,2013-05-11 23:15:00,
2013-05-11 18:20:00,46.0,21.1,30.17,NNW,338,15.0,27.0,37,0.00,,,-99.99,Weather View 32 v60,2013-05-11 23:20:00,
2013-05-11 18:25:00,46.0,20.5,30.17,NNW,338,18.0,27.0,36,0.00,,,-99.99,Weather View 32 v60,2013-05-11 23:25:00,
2013-05-11 18:30:00,46.0,20.5,30.18,NE,45,19.0,27.0,36,0.00,,,-99.99,Weather View 32 v60,2013-05-11 23:30:00,
2013-05-11 18:35:00,46.0,21.1,30.18,North,0,12.0,27.0,37,0.00,,,-99.99,Weather View 32 v60,2013-05-11 23:35:00,
2013-05-11 18:40:00,46.0,20.5,30.18,North,0,5.0,27.0,36,0.00,,,-99.99,Weather View 32 v60,2013-05-11 23:40:00,
2013-05-11 18:45:00,46.0,20.5,30.18,NNW,338,16.0,24.0,36,0.00,,,-99.99,Weather View 32 v60,2013-05-11 23:45:00,
2013-05-11 18:50:00,46.0,19.8,30.18,North,0,19.0,26.0,35,0.00,,,-99.99,Weather View 32 v60,2013-05-11 23:50:00,
2013-05-11 18:55:00,45.0,19.6,30.18,NNW,338,8.0,26.0,36,0.00,,,-99.99,Weather View 32 v60,2013-05-11 23:55:00,
2013-05-11 19:05:00,45.0,19.6,30.18,NNE,22,14.0,26.0,36,0.00,,,-99.99,Weather View 32 v60,2013-05-12 00:05:00,
2013-05-11 19:10:00,45.0,20.3,30.18,North,0,10.0,26.0,37,0.00,,,-99.99,Weather View 32 v60,2013-05-12 00:10:00,
2013-05-11 19:18:00,45.0,20.3,30.19,NNE,22,12.0,27.0,37,0.00,,,-99.99,Weather View 32 v60,2013-05-12 00:18:00,
2013-05-11 19:25:00,44.0,19.4,30.19,North,0,7.0,27.0,37,0.00,,,-99.99,Weather View 32 v60,2013-05-12 00:25:00,
2013-05-11 19:30:00,44.0,19.4,30.19,NNW,338,14.0,27.0,37,0.00,,,-99.99,Weather View 32 v60,2013-05-12 00:30:00,
2013-05-11 19:35:00,44.0,19.4,30.19,NNE,22,7.0,27.0,37,0.00,,,-99.99,Weather View 32 v60,2013-05-12 00:35:00,
2013-05-11 19:40:00,44.0,19.4,30.19,North,0,8.0,27.0,37,0.00,,,-99.99,Weather View 32 v60,2013-05-12 00:40:00,
2013-05-11 19:45:00,44.0,19.4,30.19,NNE,22,10.0,27.0,37,0.00,,,-99.99,Weather View 32 v60,2013-05-12 00:45:00,
2013-05-11 19:50:00,44.0,19.4,30.19,North,0,5.0,27.0,37,0.00,,,-99.99,Weather View 32 v60,2013-05-12 00:50:00,
2013-05-11 20:00:00,44.0,20.0,30.19,NNW,338,13.0,27.0,38,0.00,,,-99.99,Weather View 32 v60,2013-05-12 01:00:00,
2013-05-11 20:05:00,44.0,20.0,30.19,North,0,8.0,27.0,38,0.00,,,-99.99,Weather View 32 v60,2013-05-12 01:05:00,
2013-05-11 20:15:00,43.0,19.1,30.19,NNE,22,8.0,23.0,38,0.00,,,-99.99,Weather View 32 v60,2013-05-12 01:15:00,
2013-05-11 20:20:00,43.0,19.1,30.19,North,0,13.0,23.0,38,0.00,,,-99.99,Weather View 32 v60,2013-05-12 01:20:00,
2013-05-11 20:25:00,43.0,19.1,30.19,NNW,338,9.0,23.0,38,0.00,,,-99.99,Weather View 32 v60,2013-05-12 01:25:00,
2013-05-11 20:30:00,43.0,19.1,30.20,NNW,338,11.0,23.0,38,0.00,,,-99.99,Weather View 32 v60,2013-05-12 01:30:00,
2013-05-11 20:35:00,43.0,19.1,30.19,North,0,6.0,23.0,38,0.00,,,-99.99,Weather View 32 v60,2013-05-12 01:35:00,
2013-05-11 20:40:00,43.0,19.7,30.20,NNE,22,8.0,23.0,39,0.00,,,-99.99,Weather View 32 v60,2013-05-12 01:40:00,
2013-05-11 20:50:00,43.0,19.7,30.20,NNE,22,10.0,23.0,39,0.00,,,-99.99,Weather View 32 v60,2013-05-12 01:50:00,
2013-05-11 20:55:00,42.0,18.8,30.20,NNW,338,12.0,23.0,39,0.00,,,-99.99,Weather View 32 v60,2013-05-12 01:55:00,
2013-05-11 21:00:00,42.0,18.8,30.21,North,0,8.0,23.0,39,0.00,,,-99.99,Weather View 32 v60,2013-05-12 02:00:00,
2013-05-11 21:05:00,42.0,19.4,30.21,NNE,22,5.0,23.0,40,0.00,,,-99.99,Weather View 32 v60,2013-05-12 02:05:00,
2013-05-11 21:10:00,42.0,19.4,30.21,NNE,22,5.0,23.0,40,0.00,,,-99.99,Weather View 32 v60,2013-05-12 02:10:00,
2013-05-11 21:15:00,41.0,18.5,30.21,NNE,22,7.0,21.0,40,0.00,,,-99.99,Weather View 32 v60,2013-05-12 02:15:00,
2013-05-11 21:20:00,41.0,18.5,30.21,NNW,338,6.0,21.0,40,0.00,,,-99.99,Weather View 32 v60,2013-05-12 02:20:00,
2013-05-11 21:30:00,40.0,18.2,30.21,North,0,5.0,20.0,41,0.00,,,-99.99,Weather View 32 v60,2013-05-12 02:30:00,
2013-05-11 21:35:00,40.0,18.2,30.21,NNE,22,5.0,20.0,41,0.00,,,-99.99,Weather View 32 v60,2013-05-12 02:35:00,
2013-05-11 21:40:00,40.0,18.2,30.22,NNE,22,6.0,20.0,41,0.00,,,-99.99,Weather View 32 v60,2013-05-12 02:40:00,
2013-05-11 21:45:00,40.0,18.7,30.22,NNW,338,11.0,20.0,42,0.00,,,-99.99,Weather View 32 v60,2013-05-12 02:45:00,
2013-05-11 21:50:00,40.0,18.7,30.22,North,0,3.0,18.0,42,0.00,,,-99.99,Weather View 32 v60,2013-05-12 02:50:00,
2013-05-11 22:00:00,40.0,18.7,30.22,NE,45,6.0,16.0,42,0.00,,,-99.99,Weather View 32 v60,2013-05-12 03:00:00,
2013-05-11 22:05:00,40.0,18.7,30.22,North,0,4.0,16.0,42,0.00,,,-99.99,Weather View 32 v60,2013-05-12 03:05:00,
2013-05-11 22:15:00,40.0,18.7,30.22,North,0,6.0,16.0,42,0.00,,,-99.99,Weather View 32 v60,2013-05-12 03:15:00,
2013-05-11 22:20:00,40.0,18.7,30.22,NNE,22,6.0,16.0,42,0.00,,,-99.99,Weather View 32 v60,2013-05-12 03:20:00,
2013-05-11 22:25:00,39.0,17.8,30.23,NE,45,6.0,16.0,42,0.00,,,-99.99,Weather View 32 v60,2013-05-12 03:25:00,
2013-05-11 22:30:00,39.0,17.8,30.22,NNE,22,10.0,14.0,42,0.00,,,-99.99,Weather View 32 v60,2013-05-12 03:30:00,
2013-05-11 22:40:00,39.0,17.8,30.22,NNE,22,6.0,14.0,42,0.00,,,-99.99,Weather View 32 v60,2013-05-12 03:40:00,
2013-05-11 22:45:00,39.0,17.8,30.22,ENE,68,5.0,14.0,42,0.00,,,-99.99,Weather View 32 v60,2013-05-12 03:45:00,
2013-05-11 22:50:00,39.0,17.8,30.22,NNE,22,5.0,14.0,42,0.00,,,-99.99,Weather View 32 v60,2013-05-12 03:50:00,
2013-05-11 22:55:00,39.0,17.8,30.22,NNE,22,8.0,14.0,42,0.00,,,-99.99,Weather View 32 v60,2013-05-12 03:55:00,
2013-05-11 23:00:00,39.0,17.8,30.22,NNE,22,5.0,14.0,42,0.00,,,-99.99,Weather View 32 v60,2013-05-12 04:00:00,
2013-05-11 23:05:00,39.0,17.8,30.22,North,0,6.0,17.0,42,0.00,,,-99.99,Weather View 32 v60,2013-05-12 04:05:00,
2013-05-11 23:10:00,38.0,16.9,30.22,NNW,338,10.0,17.0,42,0.00,,,-99.99,Weather View 32 v60,2013-05-12 04:10:00,
2013-05-11 23:15:00,38.0,16.9,30.23,North,0,2.0,17.0,42,0.00,,,-99.99,Weather View 32 v60,2013-05-12 04:15:00,
2013-05-11 23:20:00,38.0,16.9,30.23,North,0,13.0,17.0,42,0.00,,,-99.99,Weather View 32 v60,2013-05-12 04:20:00,
2013-05-11 23:25:00,38.0,16.9,30.23,NNE,22,12.0,17.0,42,0.00,,,-99.99,Weather View 32 v60,2013-05-12 04:25:00,
2013-05-11 23:35:00,38.0,16.9,30.23,NE,45,6.0,17.0,42,0.00,,,-99.99,Weather View 32 v60,2013-05-12 04:35:00,
2013-05-11 23:40:00,38.0,16.9,30.23,ENE,68,6.0,17.0,42,0.00,,,-99.99,Weather View 32 v60,2013-05-12 04:40:00,
2013-05-11 23:45:00,38.0,16.9,30.23,NNW,338,3.0,17.0,42,0.00,,,-99.99,Weather View 32 v60,2013-05-12 04:45:00,
2013-05-11 23:50:00,37.0,16.6,30.23,NNE,22,5.0,17.0,43,0.00,,,-99.99,Weather View 32 v60,2013-05-12 04:50:00,
2013-05-11 23:55:00,37.0,16.6,30.23,NE,45,6.0,17.0,43,0.00,,,-99.99,Weather View 32 v60,2013-05-12 04:55:00,